Airfield :
LOGIN :

Register | Disclaimer

   EN    FR    IT 

 










Legend :    VFR   Marginal VFR   IFR   Intensive IFR   Very Intensive IFR
Visi :
Ceiling :
>= 8 km
>= 3000ft
5 to 8 km
1000 to 3000 ft
1500m to 5 km
500 to 1000 ft
800 to 1500m
200 to 500 ft
< 800m
< 200 ft
Symbols :   Thunderstorms  Fog  Heavy snow  Heavy precipitations  Wind > 20 kt
SIGMETs :     Misc.  Thunderstorms  Icing  Turbulence  Mountain Waves  Volcanic Ashes






- Airport Elevation : 313 ft
- IATA code : LEH


LFOH - Le Havre Octeville

CURRENT METAR :
  • 261300Z AUTO 28011KT 9999 SCT012 BKN019 BKN035 19/16 Q1015 TEMPO 3000 SHRA BKN007 SCT030CB

EXPIRED METARs :
  • 261230Z AUTO 28012KT 9999 FEW012 SCT022 OVC033 18/15 Q1014 TEMPO 3000 SHRA BKN007 SCT030CB
  • 261200Z AUTO 28012KT 9999 BKN006/// OVC033/// ///CB 17/15 Q1014 TEMPO 1200 TSRA
  • 261130Z AUTO 28012KT 9000 BKN003/// OVC013/// ///CB 18/17 Q1014 TEMPO 3000 RA BKN007 SCT030CB BECMG 17007KT
  • 261100Z AUTO 23007KT 190V260 9999 FEW013/// BKN019/// OVC031/// ///CB 20/16 Q1014 TEMPO 3000 RA BKN007 SCT030TCU
  • 261030Z AUTO 22009KT 9999 SCT028/// BKN037/// BKN058/// ///CB 20/16 Q1014 TEMPO 3000 RA BKN007 SCT030TCU

TAF TAF LFOH
Valid from the 26 at 12:00 until the 27 at 12:00 UTC


261100Z 2612/2712 23007KT 9999 BKN025
TEMPO 2612/2615 3000 SHRA BKN007 SCT030CB
PROB40 2612/2614 1200 TSRA
BECMG 2700/2703 21017G27KT
TEMPO 2707/2711 21027G37KT 3000 RA BKN007
ATIS : +33 2 35 54 64 93



MET'MAP, your aeronautical weather chart ! - Copyright ORBIFLY December 2007 - Disclaimer

ORBIFLY MET'MAP TEAM :

Programming & Development : Alexandra Zaïnal
Concept & original design : Baudouin d'Aumeries
Assistance for programming : Marc-Olivier Méhu
Technical & hardware support : Manuel Goepfert

Contact : metmap@orbifly.com




SOURCES & CREDITS :

   NOAA